Flight Track Log - Related Links

Times and Time Zones

All times are in EDT time to prevent confusion due to time zone crossing. See the N108MV flight status page for this flight to view local times or setup timezone preferences in your user account.

Time Position Orientation Groundspeed Altitude Reporting Facility
EDT Latitude Longitude Course Direction KTS MPH feet Rate Location/Type
Sun 01:33:43 PM 40.4036 -111.4111 80° East 237 273 11,600  Level Salt Lake Center
Sun 01:34:45 PM 40.4181 -111.2992 80° East 251 289 14,400 2,468 Climbing Salt Lake Center
Sun 01:35:47 PM 40.4300 -111.2019 81° East 265 305 16,700 2,129 Climbing Salt Lake Center
Sun 01:36:49 PM 40.4408 -111.1044 82° East 269 310 18,800 1,984 Climbing Salt Lake Center
Sun 01:37:51 PM 40.4531 -111.0011 81° East 281 323 20,800 1,887 Climbing Salt Lake Center
Sun 01:38:53 PM 40.4656 -110.8939 81° East 292 336 22,700 1,839 Climbing Salt Lake Center
Sun 01:39:55 PM 40.4775 -110.7861 82° East 298 343 24,600 1,742 Climbing Salt Lake Center
Sun 01:40:57 PM 40.4922 -110.6525 82° East 308 354 26,300 1,452 Climbing Salt Lake Center
Sun 01:41:59 PM 40.5047 -110.5353 82° East 319 367 27,600 1,161 Climbing Salt Lake Center
Sun 01:43:01 PM 40.5183 -110.4186 81° East 334 384 28,700 1,306 Climbing Salt Lake Center
Sun 01:44:03 PM 40.5325 -110.2817 82° East 339 390 30,300 1,306 Climbing Salt Lake Center
Sun 01:45:05 PM 40.5461 -110.1622 81° East 344 396 31,400 1,113 Climbing Salt Lake Center
Sun 01:46:07 PM 40.5611 -110.0194 82° East 352 405 32,600 1,161 Climbing Salt Lake Center
Sun 01:47:09 PM 40.5742 -109.8961 82° East 356 410 33,800 1,161 Climbing Salt Lake Center
Sun 01:48:11 PM 40.5894 -109.7508 82° East 358 412 35,000 1,065 Climbing Salt Lake Center
Sun 01:49:13 PM 40.6025 -109.6250 82° East 362 417 36,000 1,016 Climbing Salt Lake Center
Sun 01:50:15 PM 40.6153 -109.4983 82° East 364 419 37,100 1,016 Climbing Salt Lake Center
Sun 01:51:17 PM 40.6300 -109.3536 82° East 360 414 38,100 919 Climbing Salt Lake Center
Sun 01:52:19 PM 40.6433 -109.2289 82° East 360 414 39,000 841 Climbing Salt Lake Center
Sun 01:53:04 PM 40.6533 -109.1228 83° East 359 413 39,600 729 Climbing Denver Center
Sun 01:54:06 PM 40.6656 -108.9964 83° East 362 417 40,300 629 Climbing Denver Center
Sun 01:55:08 PM 40.6794 -108.8503 83° East 361 415 40,900 242 Climbing Denver Center
Sun 01:56:10 PM 40.6919 -108.7181 83° East 373 429 40,800 -48 Descending Denver Center
Sun 01:57:12 PM 40.7078 -108.5531 83° East 400 460 40,800  Level Denver Center
Sun 01:58:14 PM 40.7211 -108.4050 83° East 419 482 40,800 48 Level Denver Center
Sun 01:59:16 PM 40.7378 -108.2272 83° East 433 498 40,900  Climbing Denver Center
Sun 02:00:18 PM 40.7531 -108.0617 83° East 446 513 40,800 -48 Descending Denver Center
Sun 02:01:20 PM 40.7661 -107.9067 84° East 447 514 40,800  Level Denver Center
Sun 02:02:22 PM 40.7822 -107.7269 83° East 444 511 40,800  Level Denver Center
Sun 02:03:24 PM 40.7953 -107.5736 84° East 440 506 40,800  Level Denver Center
Sun 02:04:26 PM 40.8108 -107.3942 83° East 443 510 40,800  Level Denver Center
Sun 02:05:28 PM 40.8231 -107.2414 84° East 440 506 40,800  Level Denver Center
Sun 02:06:30 PM 40.8372 -107.0619 84° East 440 506 40,800  Level Denver Center
Sun 02:07:32 PM 40.8494 -106.9078 84° East 442 509 40,800 48 Level Denver Center
Sun 02:08:34 PM 40.8639 -106.7272 84° East 443 510 40,900  Climbing Denver Center
Sun 02:09:36 PM 40.8747 -106.5733 85° East 441 507 40,800 -48 Descending Denver Center
Sun 02:10:39 PM 40.8875 -106.3933 85° East 442 509 40,800  Level Denver Center
Sun 02:11:41 PM 40.8989 -106.2383 84° East 443 510 40,800  Level Denver Center
Sun 02:12:43 PM 40.9133 -106.0689 84° East 442 509 40,800 48 Level Denver Center
Sun 02:13:45 PM 40.9247 -105.9075 85° East 443 510 40,900  Climbing Denver Center
Sun 02:14:47 PM 40.9358 -105.7447 85° East 445 512 40,800 -48 Descending Denver Center
Sun 02:15:49 PM 40.9467 -105.5833 85° East 443 510 40,800  Level Denver Center
Sun 02:16:51 PM 40.9572 -105.4203 85° East 446 513 40,800  Level Denver Center
Sun 02:17:53 PM 40.9692 -105.2281 85° East 440 506 40,800  Level Denver Center
Sun 02:18:55 PM 40.9792 -105.0661 85° East 439 505 40,800  Level Denver Center
Sun 02:19:57 PM 40.9894 -104.9025 85° East 443 510 40,800  Level Denver Center
Sun 02:20:59 PM 40.9994 -104.7378 85° East 446 513 40,800  Level Denver Center
Sun 02:22:01 PM 41.0097 -104.5589 86° East 450 518 40,800  Level Denver Center
Sun 02:23:03 PM 41.0194 -104.4014 85° East 450 518 40,800  Level Denver Center
Sun 02:24:05 PM 41.0292 -104.2169 86° East 453 521 40,800  Level Denver Center
Sun 02:25:07 PM 41.0378 -104.0583 86° East 453 521 40,800  Level Denver Center
Sun 02:26:09 PM 41.0481 -103.8722 86° East 454 522 40,800  Level Denver Center
Sun 02:27:11 PM 41.0550 -103.7131 87° East 454 522 40,800  Level Denver Center
Sun 02:28:13 PM 41.0647 -103.5289 86° East 451 519 40,800  Level Denver Center
Sun 02:29:15 PM 41.0728 -103.3708 86° East 450 518 40,800  Level Denver Center
Sun 02:30:18 PM 41.0800 -103.1875 87° East 448 516 40,800  Level Denver Center
Sun 02:31:20 PM 41.0881 -103.0300 86° East 449 517 40,800  Level Denver Center
Sun 02:32:22 PM 41.0961 -102.8558 86° East 450 518 40,800  Level Denver Center
Sun 02:33:24 PM 41.1033 -102.6714 87° East 449 517 40,800  Level Denver Center
Sun 02:34:26 PM 41.1108 -102.5147 86° East 447 514 40,800  Level Denver Center
Sun 02:35:28 PM 41.1161 -102.3300 88° East 449 517 40,800  Level Denver Center
Sun 02:36:30 PM 41.1219 -102.1722 87° East 447 514 40,800  Level Denver Center
Sun 02:37:32 PM 41.1303 -101.9886 86° East 447 514 40,800  Level Denver Center
Sun 02:38:34 PM 41.1353 -101.8333 88° East 442 509 40,800  Level Denver Center
Sun 02:39:36 PM 41.1414 -101.6778 87° East 440 506 40,800  Level Denver Center
Sun 02:40:38 PM 41.1467 -101.4950 88° East 442 509 40,800  Level Denver Center
Sun 02:41:40 PM 41.1525 -101.3394 87° East 440 506 40,800  Level Denver Center
Sun 02:42:42 PM 41.1578 -101.1583 88° East 439 505 40,800  Level Denver Center
Sun 02:43:44 PM 41.1633 -101.0036 87° East 436 502 40,800  Level Denver Center
Sun 02:44:46 PM 41.1681 -100.8214 88° East 437 503 40,800  Level Denver Center
Sun 02:45:48 PM 41.1722 -100.6658 88° East 436 502 40,800  Level Denver Center
Sun 02:46:50 PM 41.1767 -100.5117 88° East 434 499 40,800  Level Denver Center
Sun 02:47:52 PM 41.1803 -100.3308 88° East 436 502 40,800  Level Denver Center
Sun 02:48:55 PM 41.1831 -100.1767 89° East 436 502 40,800  Level Denver Center
Sun 02:49:57 PM 41.1858 -100.0483 88° East 436 502 40,800  Level Denver Center
Sun 02:50:59 PM 41.1892 -99.8411 89° East 439 505 40,800  Level Denver Center
Sun 02:52:01 PM 41.1922 -99.6608 89° East 437 503 40,800  Level Denver Center
Sun 02:53:03 PM 41.1942 -99.5083 89° East 433 498 40,800  Level Denver Center
Sun 02:54:05 PM 41.1961 -99.3575 89° East 433 498 40,800  Level Denver Center
Sun 02:55:07 PM 41.1983 -99.1661 89° East 433 498 40,800  Level Denver Center
Sun 02:56:09 PM 41.2000 -98.9986 89° East 433 498 40,800  Level Denver Center
Sun 02:57:11 PM 41.2011 -98.8428 89° East 438 504 40,800 48 Level Denver Center
Sun 02:58:13 PM 41.2031 -98.6692 89° East 439 505 40,900  Climbing Denver Center
Sun 02:59:15 PM 41.2042 -98.5378 89° East 441 507 40,800 -42 Descending Denver Center
Sun 03:00:35 PM 41.2042 -98.3108 90° East 438 504 40,800  Level Minneapolis Center
Sun 03:01:37 PM 41.2047 -98.1161 90° East 439 505 40,800  Level Minneapolis Center
Sun 03:02:39 PM 41.2047 -97.9539 90° East 439 505 40,800  Level Minneapolis Center
Sun 03:03:41 PM 41.2044 -97.7928 90° East 437 503 40,800  Level Minneapolis Center
Sun 03:04:43 PM 41.2042 -97.6322 90° East 435 501 40,800  Level Minneapolis Center
Sun 03:05:45 PM 41.2042 -97.4714 90° East 435 501 40,800  Level Minneapolis Center
Sun 03:06:47 PM 41.2025 -97.2878 91° East 434 499 40,800  Level Minneapolis Center
Sun 03:08:01 PM 41.2017 -97.1275 90° East 434 499 40,800  Level Minneapolis Center
Sun 03:09:04 PM 41.1997 -96.9375 91° East 431 496 40,800  Level Minneapolis Center
Sun 03:10:18 PM 41.1986 -96.7783 90° East 431 496 40,800  Level Minneapolis Center
Sun 03:11:20 PM 41.1981 -96.5886 90° East 429 494 40,800 88 Level Minneapolis Center
Sun 03:12:34 PM 41.1958 -96.4019 91° East 425 489 41,000 88 Climbing Minneapolis Center
Sun 03:13:37 PM 41.1919 -96.2317 92° East 431 496 41,000  Level Minneapolis Center
Sun 03:15:00 PM 41.1969 -96.0335 88° East  Level FlightAware Approximate
Sun 03:15:53 PM 41.1878 -95.8533 88° East 427 491 41,000  Level Minneapolis Center
Sun 03:16:56 PM 41.1847 -95.6944 91° East 428 493 41,000  Level Minneapolis Center
Sun 03:17:58 PM 41.1800 -95.5272 92° East 427 491 41,000  Level Minneapolis Center
Sun 03:19:00 PM 41.1772 -95.3708 91° East 426 490 41,000  Level Minneapolis Center
Sun 03:20:02 PM 41.1747 -95.2144 91° East 427 491 41,000 48 Level Minneapolis Center
Sun 03:21:04 PM 41.1717 -95.0583 91° East 425 489 41,100 484 Climbing Minneapolis Center
Sun 03:22:06 PM 41.1672 -94.9061 92° East 418 481 42,000 926 Climbing Minneapolis Center
Sun 03:23:20 PM 41.1611 -94.6994 92° East 404 465 43,200 920 Climbing Minneapolis Center
Sun 03:24:23 PM 41.1572 -94.5558 92° East 395 455 44,100 816 Climbing Minneapolis Center
Sun 03:25:25 PM 41.1525 -94.4133 92° East 389 448 44,900 435 Climbing Minneapolis Center
Sun 03:26:27 PM 41.1489 -94.2692 92° East 389 448 45,000 48 Climbing Minneapolis Center
Sun 03:27:29 PM 41.1433 -94.1033 92° East 403 464 45,000  Level Minneapolis Center
Sun 03:28:31 PM 41.1356 -93.9519 94° East 411 473 45,000  Level Minneapolis Center
Sun 03:29:33 PM 41.1325 -93.7967 91° East 420 483 45,000  Level Minneapolis Center
Sun 03:30:35 PM 41.1269 -93.6717 93° East 424 488 45,000  Level Minneapolis Center
Sun 03:31:37 PM 41.1233 -93.5144 92° East 427 491 45,000  Level Minneapolis Center
Sun 03:32:39 PM 41.1147 -93.2928 93° East 432 497 45,000  Level Minneapolis Center
Sun 03:33:41 PM 41.1083 -93.1342 93° East 432 497 45,000  Level Minneapolis Center
Sun 03:34:34 PM 41.1031 -93.0053 93° East 433 498 45,000  Level Chicago Center
Sun 03:35:36 PM 41.0967 -92.8494 93° East 426 490 45,000  Level Chicago Center
Sun 03:36:38 PM 41.0892 -92.6739 93° East 400 460 45,000  Level Chicago Center
Sun 03:37:40 PM 41.0831 -92.5353 93° East 384 442 45,000  Level Chicago Center
Sun 03:38:42 PM 41.0775 -92.4003 93° East 372 428 45,000 -1,000 Level Chicago Center
Sun 03:40:46 PM 41.0528 -92.1289 97° East 373 429 41,900 -3,000 Descending Chicago Center
Sun 03:41:48 PM 41.0400 -91.9550 96° East 398 458 35,700 -4,548 Descending Chicago Center
Sun 03:42:50 PM 41.0175 -91.8158 102° East 396 456 32,500 -5,419 Descending Chicago Center
Sun 03:43:52 PM 40.9350 -91.8061 175° South 344 396 24,500 -5,952 Descending Chicago Center
Sun 03:44:54 PM 40.9464 -91.9017 279° West 291 335 20,200 -4,464 Descending Chicago Center
Sun 03:45:57 PM 41.0156 -91.9556 330° Northwest 289 333 15,200 -4,762 Descending Chicago Center

Login

Don't have an account? Register now (free) for customized features, flight alerts, and more!